Meteo Giornale » Osservazioni meteo Stati Uniti (USA) » Wisconsin Rapids Alexander Fld South Wood
ore: 09:54 - Osservazioni Meteo Wisconsin Rapids Alexander Fld South Wood
Lat. 44° 21' N Lon. 89° 50' W Alt. 311 metri s.l.m.
27 °C
Sereno
Temp. 24 Ore
20 °C
32 °C
Ovest/Sud-Ovest
7.4 Km/h
Dew point 21 °C
Umidità 69 %
Visibilità 10 Km
Il sole sorge alle ore 06:22
Il sole tramonta alle ore 19:35
| Data e Ora | Cielo e Fenomeni | T °C | DP °C | Um. % | Pres. hPa | Vis. km | Vento km/h | |
|---|---|---|---|---|---|---|---|---|
| Oggi h: 09:54 | Sereno | 27 | 21 | 69 | 1015 | 10 | O/SO 7.4 | |
| Oggi h: 08:54 | Sereno | 23 | 22 | 94 | 1015 | 10 | N 0 | |
| Oggi h: 07:54 | Sereno | 21 | 21 | 100 | 1015 | 14 | N 0 | |
| Oggi h: 07:31 | Foschia | 21 | 21 | 100 | 1014 | 8 | N 0 | |
| Oggi h: 07:24 | Foschia | 21 | 21 | 100 | 1014 | 2 | N 0 | |
| Oggi h: 07:22 | Foschia | 21 | 21 | 100 | 1014 | 2 | N 0 | |
| Oggi h: 07:18 | Nebbia | 21 | 21 | 100 | 1014 | 2 | N 0 | |
| Oggi h: 07:10 | Nebbia | 20 | 20 | 100 | 1014 | 0 | N 0 | |
| Oggi h: 07:06 | Nebbia | 20 | 20 | 100 | 1014 | 2 | N 0 | |
| Oggi h: 06:54 | Foschia | 21 | 21 | 100 | 1014 | 5 | N 0 | |
| Oggi h: 06:44 | Nebbia | 21 | 21 | 100 | 1014 | 2 | N 0 | |
| Oggi h: 06:40 | Foschia | 21 | 21 | 100 | 1014 | 2 | N 0 | |
| Oggi h: 05:54 | Nebbia | 21 | 21 | 100 | 1014 | 2 | N 0 | |
| Oggi h: 04:54 | Nebbia | 21 | 21 | 100 | 1013 | 2 | N 5.5 | |
| Oggi h: 03:54 | Nebbia | 22 | 22 | 100 | 1013 | 2 | N 0 | |
| Oggi h: 03:03 | Nebbia | 23 | 23 | 100 | 1013 | 2 | N 0 | |
| Oggi h: 02:54 | Nebbia | 23 | 22 | 94 | 1013 | 2 | N 0 | |
| Oggi h: 02:46 | Foschia | 23 | 23 | 100 | 1013 | 2 | N 0 | |
| Oggi h: 02:42 | Nebbia | 23 | 22 | 94 | 1013 | 2 | N 0 | |
| Oggi h: 02:37 | Nebbia | 22 | 22 | 100 | 1013 | 2 | N 0 | |
| Oggi h: 02:28 | Nebbia | 22 | 22 | 100 | 1013 | 2 | N 0 | |
| Oggi h: 02:13 | Nebbia | 22 | 22 | 100 | 1013 | 2 | N 0 | |
| Oggi h: 01:54 | Nebbia | 22 | 22 | 100 | 1013 | 2 | N 0 | |
| Oggi h: 01:43 | Nebbia | 23 | 22 | 94 | 1013 | 2 | N 0 | |
| Oggi h: 01:35 | Foschia | 23 | 23 | 100 | 1013 | 2 | N 0 | |
| Oggi h: 01:20 | Nebbia | 23 | 23 | 100 | 1013 | 2 | N 0 | |
| Oggi h: 01:13 | Nebbia | 22 | 22 | 100 | 1013 | 2 | N 0 | |
| Oggi h: 01:07 | Nebbia | 23 | 23 | 100 | 1013 | 2 | N 0 | |
| Oggi h: 00:54 | Nebbia | 22 | 22 | 100 | 1013 | 2 | N 0 | |
| Oggi h: 00:47 | Nebbia | 22 | 22 | 100 | 1013 | 2 | N 0 | |
| Oggi h: 00:37 | Foschia | 23 | 23 | 100 | 1013 | 5 | N 5.5 | |
| Oggi h: 00:23 | Foschia | 23 | 23 | 100 | 1013 | 2 | N 0 | |
| Oggi h: 00:13 | Foschia | 23 | 23 | 100 | 1013 | 5 | N 0 | |
| Oggi h: 00:10 | Foschia | 23 | 23 | 100 | 1013 | 5 | N 0 | |
| Ieri h: 23:54 | Molto Nuvoloso | 24 | 23 | 94 | 1013 | 14 | N 0 | |
| Ieri h: 23:43 | Molto Nuvoloso | 23 | 23 | 100 | 1013 | 14 | N 0 | |
| Ieri h: 22:54 | Poco Nuvoloso | 24 | 23 | 94 | 1013 | 10 | S/SO 9.3 | |
| Ieri h: 21:54 | Nuvoloso | 25 | 23 | 88 | 1013 | 10 | S/SO 7.4 | |
| Ieri h: 20:54 | Sereno | 26 | 23 | 83 | 1012 | 10 | SO 7.4 | |
| Ieri h: 19:54 | Poco Nuvoloso | 27 | 23 | 78 | 1012 | 10 | SO 7.4 | |
| Ieri h: 18:54 | Sereno | 29 | 23 | 70 | 1011 | 10 | SO 11.1 | |
| Ieri h: 17:54 | Sereno | 31 | 23 | 62 | 1011 | 10 | O/SO 13 | |
| Ieri h: 16:54 | Sereno | 30 | 23 | 66 | 1011 | 10 | N 5.5 | |
| Ieri h: 15:54 | Sereno | 30 | 23 | 66 | 1011 | 10 | N 5.5 | |
| Ieri h: 14:54 | Sereno | 32 | 23 | 59 | 1010 | 10 | S/SO 11.1 | |
| Ieri h: 13:54 | Sereno | 31 | 23 | 62 | 1011 | 10 | N 9.3 | |
| Ieri h: 12:54 | Sereno | 29 | 22 | 66 | 1011 | 10 | S/SO 11.1 | |
| Ieri h: 11:54 | Sereno | 29 | 22 | 66 | 1011 | 10 | S/SO 7.4 | |
| Ieri h: 10:54 | Sereno | 28 | 21 | 65 | 1011 | 10 | N 9.3 | |



